Time;durP1;ratioP1;P1;durP2;ratioP2;P2;SDS_P1;SDS_P2;PMS_P1;PMS_P2;Temp;Humidity;BMP_temperature;BMP_pressure;BME280_temperature;BME280_humidity;BME280_pressure;Samples;Min_cycle;Max_cycle;Signal;HPM_P1;HPM_P2
2022/08/25 00:00:32;;;;;;;11.95;6.07;;;;;;;;;;5025646;28;20063;-63
2022/08/25 00:02:58;;;;;;;7.22;5.35;;;;;;;;;;5048237;28;20045;-63
2022/08/25 00:05:26;;;;;;;5.90;5.10;;;;;;;;;;5047327;28;20032;-63
2022/08/25 00:07:52;;;;;;;6.03;5.40;;;;;;;;;;5054408;28;20099;-63
2022/08/25 00:10:19;;;;;;;9.88;5.18;;;;;;;;;;5051997;28;20743;-63
2022/08/25 00:12:45;;;;;;;9.20;5.90;;;;;;;;;;5049823;28;20076;-63
2022/08/25 00:15:11;;;;;;;8.15;5.40;;;;;;;;;;5024038;28;20048;-63
2022/08/25 00:17:37;;;;;;;6.60;5.90;;;;;;;;;;5054513;28;20072;-63
2022/08/25 00:20:04;;;;;;;5.78;4.72;;;;;;;;;;5052072;28;20045;-63
2022/08/25 00:22:30;;;;;;;7.57;5.35;;;;;;;;;;5046635;28;20047;-63
2022/08/25 00:24:56;;;;;;;7.03;4.70;;;;;;;;;;5052878;28;20040;-63
2022/08/25 00:27:23;;;;;;;6.20;4.93;;;;;;;;;;5050541;28;20044;-63
2022/08/25 00:29:49;;;;;;;8.07;5.00;;;;;;;;;;5053504;28;20048;-63
2022/08/25 00:32:17;;;;;;;6.63;4.72;;;;;;;;;;5051809;28;20040;-63
2022/08/25 00:34:43;;;;;;;6.97;5.55;;;;;;;;;;5052241;28;20041;-63
2022/08/25 00:37:09;;;;;;;11.90;4.85;;;;;;;;;;5051949;28;20095;-63
2022/08/25 00:39:36;;;;;;;6.90;4.90;;;;;;;;;;5050325;28;20048;-63
2022/08/25 00:42:03;;;;;;;6.88;4.97;;;;;;;;;;5051428;28;20131;-62
2022/08/25 00:44:31;;;;;;;8.07;5.22;;;;;;;;;;5052175;28;20033;-63
2022/08/25 00:46:59;;;;;;;7.32;5.38;;;;;;;;;;5034354;28;20644;-63
2022/08/25 00:49:25;;;;;;;7.68;5.07;;;;;;;;;;5051008;28;20195;-63
2022/08/25 00:52:09;;;;;;;5.25;4.57;;;;;;;;;;5049613;28;20120;-63
2022/08/25 00:54:45;;;;;;;6.35;4.00;;;;;;;;;;5032641;28;20045;-63
2022/08/25 00:57:13;;;;;;;4.80;4.00;;;;;;;;;;5051284;28;20040;-63
2022/08/25 00:59:40;;;;;;;5.68;3.90;;;;;;;;;;5048270;28;20083;-63
2022/08/25 01:02:07;;;;;;;4.97;3.80;;;;;;;;;;5049759;28;20055;-63
2022/08/25 01:04:33;;;;;;;6.00;3.72;;;;;;;;;;5044386;28;20036;-63
2022/08/25 01:07:00;;;;;;;8.23;4.30;;;;;;;;;;5051589;28;20033;-63
2022/08/25 01:09:28;;;;;;;5.13;4.10;;;;;;;;;;5049450;28;20490;-63
2022/08/25 01:11:54;;;;;;;5.68;3.80;;;;;;;;;;5054205;28;20173;-63
2022/08/25 01:14:21;;;;;;;5.70;3.50;;;;;;;;;;5053762;28;20044;-63
2022/08/25 01:16:47;;;;;;;4.88;3.63;;;;;;;;;;5050882;28;20032;-62
2022/08/25 01:19:14;;;;;;;6.28;3.50;;;;;;;;;;5051153;28;20037;-63
2022/08/25 01:21:42;;;;;;;4.68;3.60;;;;;;;;;;5052414;28;20033;-62
2022/08/25 01:24:10;;;;;;;8.60;3.83;;;;;;;;;;5052615;28;20449;-63
2022/08/25 01:26:36;;;;;;;5.78;3.33;;;;;;;;;;5053047;28;20166;-63
2022/08/25 01:29:19;;;;;;;4.38;3.60;;;;;;;;;;5051065;28;20495;-62
2022/08/25 01:31:46;;;;;;;5.43;3.70;;;;;;;;;;5052976;28;20041;-63
2022/08/25 01:34:12;;;;;;;5.00;3.65;;;;;;;;;;5054700;28;20071;-63
2022/08/25 01:36:39;;;;;;;6.43;4.00;;;;;;;;;;5052957;28;20033;-63
2022/08/25 01:39:05;;;;;;;6.28;3.55;;;;;;;;;;5051399;28;20045;-63
2022/08/25 01:41:34;;;;;;;4.38;3.67;;;;;;;;;;5035701;28;20148;-63
2022/08/25 01:44:01;;;;;;;5.20;3.90;;;;;;;;;;5052646;28;20045;-63
2022/08/25 01:46:27;;;;;;;4.63;4.13;;;;;;;;;;5049138;28;20944;-63
2022/08/25 01:48:53;;;;;;;4.80;4.07;;;;;;;;;;5052490;28;20346;-63
2022/08/25 01:51:20;;;;;;;5.13;3.60;;;;;;;;;;5053374;28;20037;-63
2022/08/25 01:53:46;;;;;;;4.70;3.70;;;;;;;;;;5033708;28;20041;-63
2022/08/25 01:56:14;;;;;;;6.10;4.20;;;;;;;;;;5043379;28;20043;-63
2022/08/25 01:58:42;;;;;;;7.43;3.60;;;;;;;;;;5050971;28;20107;-63
2022/08/25 02:01:10;;;;;;;5.72;3.28;;;;;;;;;;5048379;28;20521;-63
2022/08/25 02:03:37;;;;;;;3.97;3.25;;;;;;;;;;5042052;28;20059;-63
2022/08/25 02:06:04;;;;;;;5.18;3.30;;;;;;;;;;5048724;28;20098;-63
2022/08/25 02:08:30;;;;;;;4.47;3.30;;;;;;;;;;5052570;28;20056;-63
2022/08/25 02:10:56;;;;;;;4.72;3.35;;;;;;;;;;5032776;28;20033;-63
2022/08/25 02:13:22;;;;;;;6.20;3.45;;;;;;;;;;5052376;28;20533;-63
2022/08/25 02:15:50;;;;;;;3.58;2.90;;;;;;;;;;5031555;28;20033;-63
2022/08/25 02:18:16;;;;;;;6.78;3.80;;;;;;;;;;5034520;28;20317;-62
2022/08/25 02:20:43;;;;;;;6.47;3.50;;;;;;;;;;5055148;28;20040;-62
2022/08/25 02:23:09;;;;;;;5.53;3.17;;;;;;;;;;5043193;28;20045;-63
2022/08/25 02:25:36;;;;;;;7.03;3.60;;;;;;;;;;5043725;28;20063;-63
2022/08/25 02:28:02;;;;;;;4.40;3.33;;;;;;;;;;5050278;28;20041;-63
2022/08/25 02:30:28;;;;;;;5.03;3.25;;;;;;;;;;5050488;28;20033;-63
2022/08/25 02:32:54;;;;;;;5.10;3.17;;;;;;;;;;5052722;28;20037;-63
2022/08/25 02:35:20;;;;;;;4.20;3.00;;;;;;;;;;5050411;28;20124;-63
2022/08/25 02:37:46;;;;;;;5.57;3.70;;;;;;;;;;5051960;28;20047;-63
2022/08/25 02:40:13;;;;;;;6.70;3.35;;;;;;;;;;5050070;28;20045;-63
2022/08/25 02:42:39;;;;;;;5.03;3.63;;;;;;;;;;5044718;28;20071;-63
2022/08/25 02:45:06;;;;;;;6.47;3.20;;;;;;;;;;5045573;28;20048;-63
2022/08/25 02:47:32;;;;;;;6.75;3.53;;;;;;;;;;5051145;28;20041;-63
2022/08/25 02:49:58;;;;;;;5.75;3.53;;;;;;;;;;5051030;28;20511;-63
2022/08/25 02:52:24;;;;;;;6.60;3.25;;;;;;;;;;5033716;28;20045;-63
2022/08/25 02:54:50;;;;;;;6.07;3.25;;;;;;;;;;5051280;28;20119;-63
2022/08/25 02:57:16;;;;;;;5.75;3.55;;;;;;;;;;5050064;28;20041;-63
2022/08/25 02:59:47;;;;;;;4.65;3.00;;;;;;;;;;5041461;28;20406;-63
2022/08/25 03:02:13;;;;;;;5.53;3.53;;;;;;;;;;5023760;28;20053;-63
2022/08/25 03:04:39;;;;;;;5.55;3.30;;;;;;;;;;5047679;28;20037;-63
2022/08/25 03:07:05;;;;;;;6.47;3.42;;;;;;;;;;5050787;28;20080;-63
2022/08/25 03:09:31;;;;;;;10.32;3.63;;;;;;;;;;5043239;28;20044;-63
2022/08/25 03:11:57;;;;;;;4.30;3.38;;;;;;;;;;5052341;28;20097;-63
2022/08/25 03:14:23;;;;;;;6.38;3.60;;;;;;;;;;5015871;28;20072;-63
2022/08/25 03:16:50;;;;;;;5.28;3.72;;;;;;;;;;5049067;28;20056;-63
2022/08/25 03:19:16;;;;;;;6.63;3.08;;;;;;;;;;5043204;28;20049;-63
2022/08/25 03:21:44;;;;;;;4.68;3.08;;;;;;;;;;5055289;28;20041;-63
2022/08/25 03:24:10;;;;;;;5.38;3.50;;;;;;;;;;5041107;28;20118;-63
2022/08/25 03:26:55;;;;;;;3.90;3.30;;;;;;;;;;5047350;28;20033;-63
2022/08/25 03:29:28;;;;;;;8.13;3.00;;;;;;;;;;5048075;28;20045;-63
2022/08/25 03:31:56;;;;;;;7.35;3.20;;;;;;;;;;5046503;28;20048;-63
2022/08/25 03:34:23;;;;;;;7.63;3.42;;;;;;;;;;5032807;28;20108;-63
2022/08/25 03:36:50;;;;;;;7.32;3.28;;;;;;;;;;5041969;28;20066;-63
2022/08/25 03:39:17;;;;;;;4.95;3.40;;;;;;;;;;5054178;28;20055;-63
2022/08/25 03:41:43;;;;;;;6.78;3.53;;;;;;;;;;5046041;28;20112;-63
2022/08/25 03:44:09;;;;;;;3.88;3.10;;;;;;;;;;5050922;28;20406;-63
2022/08/25 03:46:43;;;;;;;4.20;3.47;;;;;;;;;;5044121;28;20037;-63
2022/08/25 03:49:11;;;;;;;10.30;3.35;;;;;;;;;;5049796;28;20494;-63
2022/08/25 03:51:39;;;;;;;6.68;3.17;;;;;;;;;;5046368;28;20502;-63
2022/08/25 03:54:06;;;;;;;4.63;3.45;;;;;;;;;;5046553;28;20465;-63
2022/08/25 03:56:32;;;;;;;6.47;3.38;;;;;;;;;;5048566;28;20037;-63
2022/08/25 03:58:58;;;;;;;5.75;3.50;;;;;;;;;;5059814;28;20041;-64
2022/08/25 04:01:24;;;;;;;9.57;3.80;;;;;;;;;;5015869;28;20037;-63
2022/08/25 04:03:51;;;;;;;5.13;3.70;;;;;;;;;;5047665;22;20054;-62
2022/08/25 04:06:17;;;;;;;5.38;3.42;;;;;;;;;;5003755;28;20037;-62
2022/08/25 04:08:43;;;;;;;4.82;3.53;;;;;;;;;;4995068;28;20038;-62
2022/08/25 04:11:11;;;;;;;5.25;3.63;;;;;;;;;;5009725;28;20060;-61
2022/08/25 04:13:38;;;;;;;8.43;3.83;;;;;;;;;;5007402;28;20045;-62
2022/08/25 04:16:10;;;;;;;5.63;3.45;;;;;;;;;;5002301;28;20042;-62
2022/08/25 04:18:36;;;;;;;6.28;3.60;;;;;;;;;;5000081;28;20046;-62
2022/08/25 04:21:03;;;;;;;6.57;3.95;;;;;;;;;;5001379;28;20048;-62
2022/08/25 04:23:29;;;;;;;7.13;3.60;;;;;;;;;;5008320;28;20516;-62
2022/08/25 04:25:55;;;;;;;4.25;3.85;;;;;;;;;;5012026;28;20038;-62
2022/08/25 04:28:21;;;;;;;7.30;4.32;;;;;;;;;;4994383;28;20601;-62
2022/08/25 04:30:47;;;;;;;5.63;3.92;;;;;;;;;;4990897;28;20045;-62
2022/08/25 04:33:13;;;;;;;6.60;3.50;;;;;;;;;;5015893;28;20072;-62
2022/08/25 04:35:40;;;;;;;5.13;3.53;;;;;;;;;;5012423;28;20191;-62
2022/08/25 04:38:06;;;;;;;6.07;4.00;;;;;;;;;;4997223;28;20081;-62
2022/08/25 04:40:32;;;;;;;5.07;3.70;;;;;;;;;;5011739;28;20030;-62
2022/08/25 04:42:59;;;;;;;5.68;3.50;;;;;;;;;;5005810;28;20057;-62
2022/08/25 04:45:25;;;;;;;5.30;3.80;;;;;;;;;;5003862;28;20120;-62
2022/08/25 04:47:51;;;;;;;4.18;3.45;;;;;;;;;;5007490;28;20514;-62
2022/08/25 04:50:17;;;;;;;8.75;4.32;;;;;;;;;;5004167;28;20046;-62
2022/08/25 04:52:43;;;;;;;6.30;3.80;;;;;;;;;;5011966;28;20092;-62
2022/08/25 04:55:09;;;;;;;6.43;3.60;;;;;;;;;;5009793;28;20554;-62
2022/08/25 04:57:35;;;;;;;5.28;3.83;;;;;;;;;;5011366;28;20438;-62
2022/08/25 05:00:02;;;;;;;5.93;3.70;;;;;;;;;;5011383;28;20050;-62
2022/08/25 05:02:28;;;;;;;5.13;4.05;;;;;;;;;;5014638;28;20034;-62
2022/08/25 05:04:54;;;;;;;5.35;4.07;;;;;;;;;;5000302;28;20458;-62
2022/08/25 05:07:20;;;;;;;4.93;3.95;;;;;;;;;;5020286;28;20042;-62
2022/08/25 05:09:46;;;;;;;4.63;3.90;;;;;;;;;;5013647;28;20121;-62
2022/08/25 05:12:12;;;;;;;8.18;3.92;;;;;;;;;;4986453;28;20124;-62
2022/08/25 05:14:38;;;;;;;8.88;4.03;;;;;;;;;;5020566;28;20034;-62
2022/08/25 05:17:05;;;;;;;6.85;4.07;;;;;;;;;;5011788;28;20092;-62
2022/08/25 05:19:31;;;;;;;7.53;4.20;;;;;;;;;;5009619;28;20041;-62
2022/08/25 05:21:57;;;;;;;5.50;4.22;;;;;;;;;;5009745;28;20385;-62
2022/08/25 05:24:23;;;;;;;7.80;4.78;;;;;;;;;;5002243;28;20550;-62
2022/08/25 05:26:49;;;;;;;11.25;4.85;;;;;;;;;;5015932;28;20038;-62
2022/08/25 05:29:16;;;;;;;8.82;4.35;;;;;;;;;;5009454;28;20137;-62
2022/08/25 05:31:43;;;;;;;8.38;4.35;;;;;;;;;;5008053;28;20042;-62
2022/08/25 05:34:09;;;;;;;9.90;4.10;;;;;;;;;;4991611;28;21934;-62
2022/08/25 05:36:35;;;;;;;5.03;4.18;;;;;;;;;;4990829;28;20034;-62
2022/08/25 05:39:02;;;;;;;9.95;4.80;;;;;;;;;;4994314;28;20470;-62
2022/08/25 05:41:29;;;;;;;11.70;4.47;;;;;;;;;;5014333;28;20048;-62
2022/08/25 05:43:55;;;;;;;7.05;4.10;;;;;;;;;;5008400;28;20073;-62
2022/08/25 05:46:22;;;;;;;5.97;3.90;;;;;;;;;;5010476;28;20092;-62
2022/08/25 05:48:48;;;;;;;7.63;4.00;;;;;;;;;;5012681;28;20558;-62
2022/08/25 05:51:15;;;;;;;5.95;4.07;;;;;;;;;;5011736;28;20034;-61
2022/08/25 05:53:43;;;;;;;7.43;4.57;;;;;;;;;;5008607;28;20549;-62
2022/08/25 05:56:10;;;;;;;4.72;4.00;;;;;;;;;;5003543;28;20062;-62
2022/08/25 05:58:36;;;;;;;6.45;4.20;;;;;;;;;;5003521;28;20037;-62
2022/08/25 06:03:52;;;;;;;8.68;4.13;;;;;;;;;;4998789;28;20046;-62
2022/08/25 06:06:18;;;;;;;6.63;4.70;;;;;;;;;;5003281;28;20099;-62
2022/08/25 06:08:44;;;;;;;7.05;4.70;;;;;;;;;;5013314;28;20034;-62
2022/08/25 06:11:11;;;;;;;7.47;4.35;;;;;;;;;;5015715;28;20116;-62
2022/08/25 06:13:38;;;;;;;5.55;4.68;;;;;;;;;;5003630;28;20042;-62
2022/08/25 06:16:04;;;;;;;8.20;4.57;;;;;;;;;;5003815;28;20484;-62
2022/08/25 06:18:30;;;;;;;9.88;4.40;;;;;;;;;;5004681;28;20583;-62
2022/08/25 06:20:56;;;;;;;6.65;3.92;;;;;;;;;;4987401;28;20050;-62
2022/08/25 06:23:22;;;;;;;6.82;4.20;;;;;;;;;;5010445;28;20403;-62
2022/08/25 06:25:52;;;;;;;6.60;4.10;;;;;;;;;;4993415;28;20054;-62
2022/08/25 06:28:19;;;;;;;4.70;4.15;;;;;;;;;;5001584;28;20049;-62
2022/08/25 06:30:46;;;;;;;6.18;4.13;;;;;;;;;;5007358;28;20407;-63
2022/08/25 06:33:13;;;;;;;6.93;4.22;;;;;;;;;;5011914;28;20049;-62
2022/08/25 06:35:43;;;;;;;5.80;4.20;;;;;;;;;;5004659;28;20100;-62
2022/08/25 06:38:10;;;;;;;8.90;4.30;;;;;;;;;;4997052;28;20041;-62
2022/08/25 06:40:36;;;;;;;6.93;4.55;;;;;;;;;;5008727;28;20034;-62
2022/08/25 06:43:05;;;;;;;8.50;4.30;;;;;;;;;;5016271;28;20072;-62
2022/08/25 06:45:31;;;;;;;5.50;3.97;;;;;;;;;;5012061;28;20096;-62
2022/08/25 06:47:58;;;;;;;9.13;4.15;;;;;;;;;;5007592;28;20404;-62
2022/08/25 06:50:24;;;;;;;6.30;4.07;;;;;;;;;;4997898;28;20475;-62
2022/08/25 06:52:50;;;;;;;6.28;4.22;;;;;;;;;;5003811;28;20049;-62
2022/08/25 06:55:17;;;;;;;6.97;4.30;;;;;;;;;;5015067;28;20415;-62
2022/08/25 06:57:43;;;;;;;12.23;5.03;;;;;;;;;;5021114;28;20408;-62
2022/08/25 07:00:10;;;;;;;5.00;4.00;;;;;;;;;;4984873;28;20056;-62
2022/08/25 07:02:37;;;;;;;9.75;4.47;;;;;;;;;;5010288;28;20549;-62
2022/08/25 07:05:03;;;;;;;6.90;4.60;;;;;;;;;;5003285;28;20049;-62
2022/08/25 07:07:29;;;;;;;8.90;4.32;;;;;;;;;;5002265;28;20042;-63
2022/08/25 07:09:55;;;;;;;9.43;4.28;;;;;;;;;;5012750;28;20120;-62
2022/08/25 07:12:23;;;;;;;10.82;4.38;;;;;;;;;;5013071;28;20428;-62
2022/08/25 07:14:49;;;;;;;7.93;4.78;;;;;;;;;;5008909;28;20046;-62
2022/08/25 07:17:15;;;;;;;5.95;4.20;;;;;;;;;;5008704;28;20029;-62
2022/08/25 07:19:41;;;;;;;8.10;4.40;;;;;;;;;;5009779;28;20447;-63
2022/08/25 07:22:07;;;;;;;8.05;4.43;;;;;;;;;;5003518;28;20073;-63
2022/08/25 07:24:33;;;;;;;6.75;4.30;;;;;;;;;;5009374;28;20034;-63
2022/08/25 07:26:59;;;;;;;6.72;4.55;;;;;;;;;;5017930;28;20041;-63
2022/08/25 07:29:27;;;;;;;7.60;4.50;;;;;;;;;;5018522;28;20128;-62
2022/08/25 07:31:53;;;;;;;8.88;4.15;;;;;;;;;;5017748;28;20068;-62
2022/08/25 07:37:04;;;;;;;8.32;4.30;;;;;;;;;;5008059;28;20482;-63
2022/08/25 07:39:31;;;;;;;6.55;4.32;;;;;;;;;;5010629;28;20117;-63
2022/08/25 07:41:57;;;;;;;8.20;4.68;;;;;;;;;;5016664;28;20048;-63
2022/08/25 07:44:24;;;;;;;11.65;4.65;;;;;;;;;;5003438;28;20068;-63
2022/08/25 07:46:50;;;;;;;8.45;4.30;;;;;;;;;;5014178;28;20046;-63
2022/08/25 07:49:17;;;;;;;11.00;4.70;;;;;;;;;;4985262;28;20138;-63
2022/08/25 07:51:43;;;;;;;7.32;4.20;;;;;;;;;;5010378;28;20460;-63
2022/08/25 07:54:09;;;;;;;9.05;4.55;;;;;;;;;;5011590;28;20052;-63
2022/08/25 07:56:35;;;;;;;10.48;4.47;;;;;;;;;;5010652;28;20030;-62
2022/08/25 07:59:01;;;;;;;20.30;4.82;;;;;;;;;;5019203;28;20053;-63
2022/08/25 08:01:27;;;;;;;8.43;4.38;;;;;;;;;;5010552;28;20038;-62
2022/08/25 08:03:53;;;;;;;26.50;5.40;;;;;;;;;;5011029;28;20519;-62
2022/08/25 08:06:21;;;;;;;16.00;5.50;;;;;;;;;;5020246;28;20522;-62
2022/08/25 08:08:49;;;;;;;6.95;4.40;;;;;;;;;;5014801;28;20046;-63
2022/08/25 08:11:16;;;;;;;6.68;4.15;;;;;;;;;;5006830;28;20053;-63
2022/08/25 08:13:42;;;;;;;16.23;5.40;;;;;;;;;;5009072;28;20034;-63
2022/08/25 08:16:12;;;;;;;8.55;4.80;;;;;;;;;;5005211;28;20044;-63
2022/08/25 08:18:38;;;;;;;11.70;4.20;;;;;;;;;;5008207;28;20130;-62
2022/08/25 08:21:04;;;;;;;10.88;4.07;;;;;;;;;;5006704;28;20488;-62
2022/08/25 08:23:30;;;;;;;16.23;4.47;;;;;;;;;;5011601;28;20045;-63
2022/08/25 08:25:57;;;;;;;17.88;4.60;;;;;;;;;;5010146;28;20049;-63
2022/08/25 08:28:26;;;;;;;8.23;3.97;;;;;;;;;;5022604;28;20057;-62
2022/08/25 08:30:52;;;;;;;26.55;5.20;;;;;;;;;;5010423;28;20063;-62
2022/08/25 08:33:18;;;;;;;12.77;4.20;;;;;;;;;;5004968;28;20030;-63
2022/08/25 08:35:44;;;;;;;10.88;4.40;;;;;;;;;;5007302;28;20038;-62
2022/08/25 08:38:11;;;;;;;12.85;3.80;;;;;;;;;;5012184;28;20040;-62
2022/08/25 08:42:15;;;;;;;7.60;4.15;;;;;;;;;;5015502;28;20396;-62
2022/08/25 08:43:31;;;;;;;6.55;3.90;;;;;;;;;;5004942;28;20145;-62
2022/08/25 08:45:57;;;;;;;8.45;4.05;;;;;;;;;;5012805;28;20132;-63
2022/08/25 08:48:32;;;;;;;14.35;4.25;;;;;;;;;;5013021;28;20049;-62
2022/08/25 08:51:17;;;;;;;6.00;3.80;;;;;;;;;;5012608;28;20054;-63
2022/08/25 08:53:52;;;;;;;8.35;3.88;;;;;;;;;;4990946;28;20395;-63
2022/08/25 08:56:27;;;;;;;5.93;3.92;;;;;;;;;;5003693;28;20044;-62
2022/08/25 08:59:03;;;;;;;7.85;3.67;;;;;;;;;;5001627;28;20077;-63
2022/08/25 09:01:45;;;;;;;6.43;3.40;;;;;;;;;;4985480;28;20061;-63
2022/08/25 09:04:26;;;;;;;8.57;3.60;;;;;;;;;;5006197;28;20503;-63
2022/08/25 09:06:52;;;;;;;5.68;3.38;;;;;;;;;;5007963;28;20095;-62
2022/08/25 09:09:24;;;;;;;5.75;3.53;;;;;;;;;;5008470;28;20125;-62
2022/08/25 09:11:50;;;;;;;6.00;3.47;;;;;;;;;;5014782;28;20091;-63
2022/08/25 09:14:25;;;;;;;5.10;3.55;;;;;;;;;;5006948;28;20160;-62
2022/08/25 09:16:59;;;;;;;5.90;3.10;;;;;;;;;;5007102;28;20042;-63
2022/08/25 09:19:44;;;;;;;5.75;3.05;;;;;;;;;;5016601;28;20041;-63
2022/08/25 09:22:13;;;;;;;9.23;3.60;;;;;;;;;;5007217;28;20066;-62
2022/08/25 09:24:48;;;;;;;4.90;3.30;;;;;;;;;;5014820;28;20046;-63
2022/08/25 09:27:14;;;;;;;5.03;3.33;;;;;;;;;;5007527;28;20042;-63
2022/08/25 09:30:01;;;;;;;7.88;3.35;;;;;;;;;;5009195;28;20038;-63
2022/08/25 09:32:28;;;;;;;4.80;3.10;;;;;;;;;;5002320;28;20049;-63
2022/08/25 09:34:54;;;;;;;7.78;3.40;;;;;;;;;;5003884;28;20155;-63
2022/08/25 09:37:22;;;;;;;12.15;3.75;;;;;;;;;;5011780;28;20515;-63
2022/08/25 09:39:48;;;;;;;8.63;3.42;;;;;;;;;;5006401;28;20083;-63
2022/08/25 09:42:14;;;;;;;5.78;2.90;;;;;;;;;;5017480;28;20120;-63
2022/08/25 09:44:44;;;;;;;4.88;3.50;;;;;;;;;;4997742;28;20042;-62
2022/08/25 09:47:23;;;;;;;9.07;3.80;;;;;;;;;;5003445;28;20038;-63
2022/08/25 09:49:55;;;;;;;6.13;2.90;;;;;;;;;;5006664;28;20046;-63
2022/08/25 09:52:28;;;;;;;4.95;3.00;;;;;;;;;;5005742;28;20542;-63
2022/08/25 09:54:55;;;;;;;5.00;3.22;;;;;;;;;;5018523;28;20045;-63
2022/08/25 09:57:28;;;;;;;5.05;2.92;;;;;;;;;;5009664;28;20038;-63
2022/08/25 09:59:54;;;;;;;5.25;3.30;;;;;;;;;;5004563;28;20053;-63
2022/08/25 10:02:24;;;;;;;4.70;3.28;;;;;;;;;;5008980;28;20045;-63
2022/08/25 10:04:51;;;;;;;5.28;3.22;;;;;;;;;;5052217;22;20040;-65
2022/08/25 10:07:20;;;;;;;8.52;3.55;;;;;;;;;;5068194;28;20182;-65
2022/08/25 10:09:51;;;;;;;5.05;3.20;;;;;;;;;;5066278;28;20068;-65
2022/08/25 10:12:23;;;;;;;4.55;2.90;;;;;;;;;;5062852;28;20093;-65
2022/08/25 10:14:49;;;;;;;6.82;3.65;;;;;;;;;;5058655;28;20044;-65
2022/08/25 10:17:26;;;;;;;9.50;3.83;;;;;;;;;;5066359;28;20040;-65
2022/08/25 10:19:53;;;;;;;5.30;3.60;;;;;;;;;;5070441;28;20044;-65
2022/08/25 10:22:30;;;;;;;6.93;3.20;;;;;;;;;;5063986;28;20040;-64
2022/08/25 10:24:56;;;;;;;6.57;2.85;;;;;;;;;;5069484;28;20074;-62
2022/08/25 10:27:38;;;;;;;4.70;2.80;;;;;;;;;;5058558;28;20041;-62
2022/08/25 10:30:04;;;;;;;10.57;3.55;;;;;;;;;;5055825;28;20037;-62
2022/08/25 10:32:29;;;;;;;14.82;4.00;;;;;;;;;;5054998;28;20783;-62
2022/08/25 10:34:58;;;;;;;6.32;2.95;;;;;;;;;;5070654;28;20040;-63
2022/08/25 10:37:32;;;;;;;18.75;3.95;;;;;;;;;;5070254;28;20038;-63
2022/08/25 10:40:11;;;;;;;12.05;4.13;;;;;;;;;;5051544;28;20643;-62
2022/08/25 10:42:46;;;;;;;9.88;3.30;;;;;;;;;;5060949;28;20040;-62
2022/08/25 10:48:19;;;;;;;4.88;2.53;;;;;;;;;;5057225;28;20045;-62
2022/08/25 10:51:08;;;;;;;5.82;2.60;;;;;;;;;;5065604;28;20633;-62
2022/08/25 10:53:34;;;;;;;5.63;2.88;;;;;;;;;;5030419;28;20053;-62
2022/08/25 10:56:04;;;;;;;4.13;2.72;;;;;;;;;;5065666;28;20044;-62
2022/08/25 10:58:39;;;;;;;8.02;2.97;;;;;;;;;;5062186;28;20041;-62
2022/08/25 11:01:09;;;;;;;8.15;2.72;;;;;;;;;;5064118;28;20052;-62
2022/08/25 11:03:42;;;;;;;4.47;2.80;;;;;;;;;;5067604;28;20028;-63
2022/08/25 11:06:14;;;;;;;7.20;3.00;;;;;;;;;;5066198;28;20053;-62
2022/08/25 11:08:44;;;;;;;6.43;2.78;;;;;;;;;;5070461;28;20041;-62
2022/08/25 11:11:13;;;;;;;6.03;3.00;;;;;;;;;;5063876;28;20032;-62
2022/08/25 11:13:43;;;;;;;7.50;2.78;;;;;;;;;;5059854;28;20410;-63
2022/08/25 11:16:14;;;;;;;17.17;3.55;;;;;;;;;;5067924;28;20525;-62
2022/08/25 11:18:46;;;;;;;12.60;3.08;;;;;;;;;;5062378;28;20040;-62
2022/08/25 11:21:15;;;;;;;4.13;2.35;;;;;;;;;;5063290;28;20036;-62
2022/08/25 11:23:46;;;;;;;4.93;2.53;;;;;;;;;;5065491;28;20052;-62
2022/08/25 11:26:14;;;;;;;9.00;2.60;;;;;;;;;;5065014;28;20040;-62
2022/08/25 11:28:59;;;;;;;19.83;4.28;;;;;;;;;;5057367;28;20123;-63
2022/08/25 11:31:26;;;;;;;17.52;3.60;;;;;;;;;;5059960;28;20043;-63
2022/08/25 11:33:59;;;;;;;4.35;2.35;;;;;;;;;;5065378;28;20062;-63
2022/08/25 11:36:34;;;;;;;11.38;3.05;;;;;;;;;;5059211;28;20047;-64
2022/08/25 11:39:03;;;;;;;11.13;3.30;;;;;;;;;;5059603;28;20575;-63
2022/08/25 11:41:29;;;;;;;13.10;3.65;;;;;;;;;;5059172;28;20106;-64
2022/08/25 11:44:05;;;;;;;11.30;3.05;;;;;;;;;;5061050;28;20099;-64
2022/08/25 11:46:31;;;;;;;5.35;2.65;;;;;;;;;;5065259;28;20119;-64
2022/08/25 11:49:01;;;;;;;4.82;2.42;;;;;;;;;;5061903;28;20147;-64
2022/08/25 11:51:30;;;;;;;4.18;2.42;;;;;;;;;;5063189;28;20059;-64
2022/08/25 11:54:15;;;;;;;4.50;2.40;;;;;;;;;;5053050;28;20091;-64
2022/08/25 11:56:41;;;;;;;4.47;2.78;;;;;;;;;;5060335;28;20040;-64
2022/08/25 11:59:08;;;;;;;36.72;4.53;;;;;;;;;;5063281;28;20076;-64
2022/08/25 12:01:41;;;;;;;4.88;2.60;;;;;;;;;;5063139;28;20037;-64
2022/08/25 12:04:26;;;;;;;7.13;2.60;;;;;;;;;;5064047;28;20090;-63
2022/08/25 12:07:04;;;;;;;10.50;2.83;;;;;;;;;;5067017;28;20120;-64
2022/08/25 12:09:31;;;;;;;6.05;2.70;;;;;;;;;;5064620;28;20032;-63
2022/08/25 12:11:58;;;;;;;6.95;2.30;;;;;;;;;;5069319;28;20037;-64
2022/08/25 12:14:24;;;;;;;6.50;2.80;;;;;;;;;;5068374;28;20032;-64
2022/08/25 12:16:52;;;;;;;5.53;2.45;;;;;;;;;;5066235;28;20398;-64
2022/08/25 12:19:23;;;;;;;4.10;1.95;;;;;;;;;;5064126;28;20040;-64
2022/08/25 12:21:49;;;;;;;3.90;2.28;;;;;;;;;;5065049;28;20064;-64
2022/08/25 12:24:18;;;;;;;4.47;2.60;;;;;;;;;;5069360;28;20036;-64
2022/08/25 12:26:47;;;;;;;9.25;2.83;;;;;;;;;;5067110;28;20048;-64
2022/08/25 12:29:31;;;;;;;5.60;2.67;;;;;;;;;;5067723;28;20066;-64
2022/08/25 12:31:58;;;;;;;38.58;4.88;;;;;;;;;;5065851;28;20036;-64
2022/08/25 12:34:30;;;;;;;3.33;2.63;;;;;;;;;;5067721;28;20036;-64
2022/08/25 12:36:58;;;;;;;5.13;3.03;;;;;;;;;;5062025;28;20060;-64
2022/08/25 12:39:29;;;;;;;4.53;2.58;;;;;;;;;;5071158;28;20043;-64
2022/08/25 12:41:57;;;;;;;7.88;3.53;;;;;;;;;;5066417;28;20036;-64
2022/08/25 12:44:35;;;;;;;11.63;4.35;;;;;;;;;;5069307;28;20051;-64
2022/08/25 12:47:20;;;;;;;49.38;5.90;;;;;;;;;;5071191;28;20055;-64
2022/08/25 12:49:47;;;;;;;41.45;4.75;;;;;;;;;;5068803;28;20064;-64
2022/08/25 12:52:17;;;;;;;9.30;2.78;;;;;;;;;;5068756;28;20037;-63
2022/08/25 12:54:43;;;;;;;8.35;3.35;;;;;;;;;;5063370;28;20040;-64
2022/08/25 12:57:27;;;;;;;26.08;4.15;;;;;;;;;;5064163;28;20040;-64
2022/08/25 12:59:54;;;;;;;22.90;3.90;;;;;;;;;;5064846;28;20401;-64
2022/08/25 13:02:36;;;;;;;13.50;2.92;;;;;;;;;;5063338;28;20039;-64
2022/08/25 13:05:20;;;;;;;21.27;3.63;;;;;;;;;;5065896;28;20032;-64
2022/08/25 13:07:49;;;;;;;5.15;2.88;;;;;;;;;;5067930;28;20127;-64
2022/08/25 13:10:19;;;;;;;7.82;3.20;;;;;;;;;;5069802;28;20040;-64
2022/08/25 13:12:52;;;;;;;4.53;2.95;;;;;;;;;;5059307;28;20094;-64
2022/08/25 13:15:32;;;;;;;6.03;3.10;;;;;;;;;;5066017;28;20063;-64
2022/08/25 13:18:17;;;;;;;4.28;3.20;;;;;;;;;;5065350;28;20559;-64
2022/08/25 13:20:43;;;;;;;13.02;4.10;;;;;;;;;;5066154;28;20054;-65
2022/08/25 13:23:09;;;;;;;9.38;4.18;;;;;;;;;;5065026;28;20044;-64
2022/08/25 13:25:39;;;;;;;6.10;3.83;;;;;;;;;;5066935;28;20037;-64
2022/08/25 13:28:05;;;;;;;;;;;;;;;;;;5063983;28;20037;-64
2022/08/25 13:30:33;;;;;;;6.60;3.67;;;;;;;;;;5070864;28;20293;-64
2022/08/25 13:32:59;;;;;;;6.88;3.58;;;;;;;;;;5064108;28;20041;-64
2022/08/25 13:35:31;;;;;;;5.63;3.38;;;;;;;;;;5056848;28;20040;-63
2022/08/25 13:38:16;;;;;;;20.83;4.30;;;;;;;;;;5066798;28;20060;-64
2022/08/25 13:40:42;;;;;;;14.05;3.53;;;;;;;;;;5068446;28;20084;-63
2022/08/25 13:43:10;;;;;;;18.35;3.53;;;;;;;;;;5063862;28;20044;-63
2022/08/25 13:45:41;;;;;;;7.72;3.25;;;;;;;;;;5064567;28;20041;-63
2022/08/25 13:48:08;;;;;;;7.53;3.30;;;;;;;;;;5064682;28;20091;-63
2022/08/25 13:50:35;;;;;;;5.25;3.08;;;;;;;;;;5067887;28;20029;-64
2022/08/25 13:53:20;;;;;;;5.43;2.90;;;;;;;;;;5066944;28;20051;-63
2022/08/25 13:56:00;;;;;;;3.78;3.33;;;;;;;;;;5069328;28;20044;-63
2022/08/25 13:58:35;;;;;;;20.42;4.57;;;;;;;;;;5062397;28;20066;-64
2022/08/25 14:01:07;;;;;;;13.25;3.83;;;;;;;;;;5066376;28;20051;-64
2022/08/25 14:03:37;;;;;;;5.25;2.95;;;;;;;;;;5068153;28;20041;-64
2022/08/25 14:06:27;;;;;;;4.18;3.22;;;;;;;;;;5069217;28;20401;-64
2022/08/25 14:08:53;;;;;;;4.83;2.83;;;;;;;;;;5056185;28;20045;-64
2022/08/25 14:11:31;;;;;;;4.78;2.58;;;;;;;;;;5064038;28;20039;-64
2022/08/25 14:14:07;;;;;;;3.28;2.40;;;;;;;;;;5068960;28;20040;-64
2022/08/25 14:16:36;;;;;;;3.92;2.50;;;;;;;;;;5065564;28;20150;-64
2022/08/25 14:19:03;;;;;;;5.18;2.92;;;;;;;;;;5065901;28;20053;-64
2022/08/25 14:21:30;;;;;;;6.35;3.17;;;;;;;;;;5059986;28;20045;-64
2022/08/25 14:23:57;;;;;;;4.68;2.60;;;;;;;;;;5057749;28;20048;-64
2022/08/25 14:26:23;;;;;;;3.58;2.40;;;;;;;;;;5066995;28;20036;-64
2022/08/25 14:28:49;;;;;;;6.03;2.65;;;;;;;;;;5068056;28;20053;-64
2022/08/25 14:31:26;;;;;;;3.05;2.22;;;;;;;;;;5066030;28;20028;-63
2022/08/25 14:33:57;;;;;;;3.55;2.80;;;;;;;;;;5062235;28;20040;-63
2022/08/25 14:36:23;;;;;;;4.93;2.67;;;;;;;;;;5062782;28;20055;-63
2022/08/25 14:38:50;;;;;;;6.57;3.00;;;;;;;;;;5064218;28;20494;-63
2022/08/25 14:41:16;;;;;;;3.60;2.47;;;;;;;;;;5068698;28;20512;-63
2022/08/25 14:43:42;;;;;;;4.43;2.63;;;;;;;;;;5060380;28;20043;-63
2022/08/25 14:46:17;;;;;;;4.88;2.58;;;;;;;;;;5043783;28;20036;-63
2022/08/25 14:48:44;;;;;;;5.10;2.90;;;;;;;;;;5051745;28;20037;-64
2022/08/25 14:51:11;;;;;;;6.13;2.50;;;;;;;;;;5051895;28;20111;-63
2022/08/25 14:53:37;;;;;;;5.13;2.80;;;;;;;;;;5060163;28;20041;-64
2022/08/25 14:56:03;;;;;;;3.45;3.15;;;;;;;;;;5072705;28;20353;-64
2022/08/25 14:58:29;;;;;;;4.50;3.45;;;;;;;;;;5065886;28;20106;-64